createdAt,value
2017-12-09T00:01:41.625Z,5.00
2017-12-09T00:04:16.772Z,4.37
2017-12-09T00:06:51.813Z,2.60
2017-12-09T00:09:26.652Z,4.30
2017-12-09T00:12:01.336Z,4.63
2017-12-09T00:14:36.220Z,2.30
2017-12-09T00:17:10.940Z,9.03
2017-12-09T00:19:45.997Z,4.60
2017-12-09T00:22:32.092Z,4.47
2017-12-09T00:25:06.344Z,7.80
2017-12-09T00:27:41.367Z,8.47
2017-12-09T00:30:16.038Z,6.43
2017-12-09T00:32:50.745Z,3.43
2017-12-09T00:35:25.672Z,3.83
2017-12-09T00:38:00.476Z,3.17
2017-12-09T00:40:35.240Z,5.00
2017-12-09T00:43:10.044Z,3.13
2017-12-09T00:45:44.949Z,6.60
2017-12-09T00:48:20.011Z,2.63
2017-12-09T00:50:55.308Z,3.30
2017-12-09T00:53:29.841Z,7.10
2017-12-09T00:56:04.745Z,9.37
2017-12-09T00:58:39.496Z,9.73
2017-12-09T01:01:13.980Z,3.93
2017-12-09T01:03:48.543Z,7.57
2017-12-09T01:06:23.484Z,8.63
2017-12-09T01:08:58.536Z,5.13
2017-12-09T01:11:33.669Z,6.73
2017-12-09T01:14:08.892Z,7.03
2017-12-09T01:16:55.192Z,5.70
2017-12-09T01:19:29.701Z,3.07
2017-12-09T01:22:04.739Z,10.43
2017-12-09T01:24:39.684Z,3.20
2017-12-09T01:27:14.540Z,9.60
2017-12-09T01:29:49.268Z,4.80
2017-12-09T01:32:24.372Z,6.67
2017-12-09T01:34:58.896Z,6.87
2017-12-09T01:37:34.027Z,5.67
2017-12-09T01:40:08.575Z,6.30
2017-12-09T01:42:43.408Z,16.73
2017-12-09T01:45:18.116Z,4.10
2017-12-09T01:47:52.944Z,4.33
2017-12-09T01:50:27.312Z,4.87
2017-12-09T01:53:02.080Z,4.87
2017-12-09T01:55:37.161Z,3.83
2017-12-09T01:58:12.448Z,8.90
2017-12-09T02:00:47.120Z,1.60
2017-12-09T02:03:21.364Z,2.97
2017-12-09T02:05:55.848Z,2.60
2017-12-09T02:08:30.496Z,2.23
2017-12-09T02:11:05.633Z,9.17
2017-12-09T02:13:39.833Z,10.07
2017-12-09T02:16:14.740Z,2.80
2017-12-09T02:18:48.848Z,2.33
2017-12-09T02:21:23.644Z,4.80
2017-12-09T02:23:58.352Z,5.40
2017-12-09T02:26:33.255Z,2.77
2017-12-09T02:29:08.308Z,3.80
2017-12-09T02:31:43.107Z,4.73
2017-12-09T02:34:17.968Z,1.57
2017-12-09T02:36:52.601Z,4.67
2017-12-09T02:39:27.320Z,1.23
2017-12-09T02:42:01.852Z,3.90
2017-12-09T02:44:36.295Z,1.60
2017-12-09T02:47:11.136Z,1.87
2017-12-09T02:49:46.748Z,2.50
2017-12-09T02:52:21.568Z,4.00
2017-12-09T02:54:56.397Z,4.43
2017-12-09T02:57:31.157Z,8.10
2017-12-09T03:00:05.737Z,4.17
2017-12-09T03:02:40.375Z,4.97
2017-12-09T03:05:14.927Z,3.63
2017-12-09T03:07:49.632Z,6.50
2017-12-09T03:10:24.461Z,3.07
2017-12-09T03:12:59.047Z,3.97
2017-12-09T03:15:33.869Z,6.00
2017-12-09T03:18:08.620Z,3.53
2017-12-09T03:20:44.236Z,2.67
2017-12-09T03:23:18.507Z,2.83
2017-12-09T03:25:53.564Z,10.67
2017-12-09T03:28:28.580Z,8.97
2017-12-09T03:31:03.620Z,4.70
2017-12-09T03:33:39.019Z,2.40
2017-12-09T03:36:13.772Z,5.10
2017-12-09T03:38:48.000Z,6.53
2017-12-09T03:41:23.028Z,3.70
2017-12-09T03:43:57.756Z,8.03
2017-12-09T03:46:32.441Z,7.97
2017-12-09T03:49:07.229Z,6.17
2017-12-09T03:51:41.880Z,4.17
2017-12-09T03:54:16.509Z,6.43
2017-12-09T03:56:51.012Z,7.13
2017-12-09T03:59:25.643Z,4.27
2017-12-09T04:02:00.248Z,3.33
2017-12-09T04:04:35.008Z,4.93
2017-12-09T04:07:09.809Z,5.00
2017-12-09T04:09:44.403Z,6.97
2017-12-09T04:12:19.581Z,10.13
2017-12-09T04:14:54.333Z,4.30
2017-12-09T04:17:29.148Z,6.60
2017-12-09T04:20:04.057Z,5.70
2017-12-09T04:22:39.064Z,10.13
2017-12-09T04:25:13.568Z,5.30
2017-12-09T04:27:48.289Z,8.73
2017-12-09T04:30:22.980Z,4.17
2017-12-09T04:32:57.824Z,5.73
2017-12-09T04:35:32.864Z,5.77
2017-12-09T04:38:07.617Z,7.40
2017-12-09T04:40:42.624Z,16.80
2017-12-09T04:43:17.692Z,6.87
2017-12-09T04:45:52.596Z,5.33
2017-12-09T04:48:27.309Z,8.50
2017-12-09T04:51:02.272Z,5.47
2017-12-09T04:53:36.873Z,9.30
2017-12-09T04:56:11.412Z,7.10
2017-12-09T04:58:46.050Z,6.53
2017-12-09T05:01:20.733Z,7.17
2017-12-09T05:03:55.504Z,9.70
2017-12-09T05:06:30.209Z,8.23
2017-12-09T05:09:04.397Z,5.27
2017-12-09T05:11:38.540Z,4.50
2017-12-09T05:14:13.316Z,3.30
2017-12-09T05:16:48.006Z,2.90
2017-12-09T05:19:22.777Z,4.57
2017-12-09T05:21:57.451Z,6.20
2017-12-09T05:24:32.091Z,3.93
2017-12-09T05:27:07.036Z,5.27
2017-12-09T05:29:41.841Z,5.80
2017-12-09T05:32:16.516Z,2.77
2017-12-09T05:34:51.005Z,6.60
2017-12-09T05:37:25.648Z,7.00
2017-12-09T05:40:00.464Z,6.20
2017-12-09T05:45:09.008Z,4.47
2017-12-09T05:47:43.801Z,5.90
2017-12-09T05:50:18.371Z,4.13
2017-12-09T05:52:53.153Z,9.43
2017-12-09T05:55:27.784Z,9.13
2017-12-09T05:58:02.436Z,4.10
2017-12-09T06:00:37.071Z,5.27
2017-12-09T06:03:11.669Z,7.83
2017-12-09T06:05:46.348Z,8.20
2017-12-09T06:08:20.992Z,6.13
2017-12-09T06:10:55.668Z,11.90
2017-12-09T06:13:30.308Z,9.20
2017-12-09T06:16:04.804Z,5.37
2017-12-09T06:18:39.364Z,5.90
2017-12-09T06:21:13.861Z,8.23
2017-12-09T06:23:48.753Z,7.20
2017-12-09T06:26:23.476Z,7.77
2017-12-09T06:28:58.148Z,10.70
2017-12-09T06:31:32.840Z,5.80
2017-12-09T06:34:07.529Z,6.87
2017-12-09T06:36:42.323Z,5.63
2017-12-09T06:39:17.153Z,8.47
2017-12-09T06:41:51.617Z,5.83
2017-12-09T06:44:26.512Z,8.83
2017-12-09T06:47:00.563Z,5.73
2017-12-09T06:49:35.164Z,5.07
2017-12-09T06:52:09.769Z,6.17
2017-12-09T06:54:44.624Z,7.70
2017-12-09T06:57:19.296Z,6.27
2017-12-09T06:59:53.904Z,10.80
2017-12-09T07:02:28.933Z,8.53
2017-12-09T07:05:03.312Z,6.90
2017-12-09T07:07:38.264Z,5.80
2017-12-09T07:10:13.115Z,8.13
2017-12-09T07:12:47.644Z,5.80
2017-12-09T07:15:21.969Z,6.03
2017-12-09T07:17:56.995Z,3.03
2017-12-09T07:20:31.554Z,8.80
2017-12-09T07:23:06.096Z,3.77
2017-12-09T07:25:40.804Z,3.67
2017-12-09T07:28:15.356Z,8.23
2017-12-09T07:30:50.458Z,6.70
2017-12-09T07:33:25.172Z,6.03
2017-12-09T07:35:59.876Z,7.13
2017-12-09T07:38:34.508Z,10.00
2017-12-09T07:41:09.284Z,9.50
2017-12-09T07:43:44.096Z,11.13
2017-12-09T07:46:18.885Z,8.40
2017-12-09T07:48:53.541Z,8.30
2017-12-09T07:51:28.325Z,5.43
2017-12-09T07:54:02.825Z,10.90
2017-12-09T07:56:37.496Z,8.23
2017-12-09T07:59:12.022Z,7.30
2017-12-09T08:01:46.721Z,11.13
2017-12-09T08:04:21.152Z,4.63
2017-12-09T08:06:55.784Z,8.20
2017-12-09T08:09:30.503Z,10.47
2017-12-09T08:12:05.184Z,8.47
2017-12-09T08:14:39.767Z,8.87
2017-12-09T08:17:14.320Z,6.90
2017-12-09T08:19:48.945Z,7.63
2017-12-09T08:22:23.432Z,4.60
2017-12-09T08:24:58.080Z,6.00
2017-12-09T08:27:32.776Z,4.80
2017-12-09T08:30:07.693Z,6.13
2017-12-09T08:32:42.016Z,2.30
2017-12-09T08:35:17.235Z,3.07
2017-12-09T08:37:51.520Z,3.83
2017-12-09T08:40:26.144Z,3.63
2017-12-09T08:43:00.676Z,5.03
2017-12-09T08:45:35.368Z,6.33
2017-12-09T08:48:10.424Z,4.37
2017-12-09T08:50:44.980Z,9.97
2017-12-09T08:53:19.739Z,6.30
2017-12-09T08:55:54.696Z,5.60
2017-12-09T08:58:29.224Z,4.77
2017-12-09T09:01:03.768Z,5.33
2017-12-09T09:03:38.277Z,6.37
2017-12-09T09:06:13.003Z,4.67
2017-12-09T09:08:47.740Z,6.30
2017-12-09T09:11:22.745Z,4.70
2017-12-09T09:13:57.197Z,4.73
2017-12-09T09:16:31.696Z,5.43
2017-12-09T09:19:06.456Z,4.73
2017-12-09T09:21:41.291Z,5.13
2017-12-09T09:24:15.826Z,5.40
2017-12-09T09:26:50.536Z,12.10
2017-12-09T09:29:25.073Z,9.60
2017-12-09T09:31:59.662Z,4.90
2017-12-09T09:34:34.592Z,5.53
2017-12-09T09:37:09.012Z,8.30
2017-12-09T09:39:43.964Z,7.20
2017-12-09T09:42:18.477Z,5.03
2017-12-09T09:44:53.332Z,10.57
2017-12-09T09:47:27.929Z,6.40
2017-12-09T09:50:02.784Z,10.03
2017-12-09T09:52:37.956Z,5.90
2017-12-09T09:55:12.455Z,4.50
2017-12-09T09:57:47.073Z,8.70
2017-12-09T10:00:22.256Z,6.57
2017-12-09T10:02:57.310Z,7.63
2017-12-09T10:05:31.905Z,7.80
2017-12-09T10:08:06.604Z,3.90
2017-12-09T10:10:41.548Z,8.20
2017-12-09T10:13:15.891Z,7.27
2017-12-09T10:15:50.692Z,8.90
2017-12-09T10:18:25.397Z,10.90
2017-12-09T10:21:00.268Z,5.80
2017-12-09T10:23:35.426Z,4.47
2017-12-09T10:26:10.021Z,9.70
2017-12-09T10:28:44.971Z,13.33
2017-12-09T10:31:19.444Z,5.83
2017-12-09T10:33:54.124Z,10.87
2017-12-09T10:36:28.801Z,8.33
2017-12-09T10:39:03.240Z,5.80
2017-12-09T10:41:37.847Z,6.67
2017-12-09T10:44:12.561Z,5.73
2017-12-09T10:46:47.312Z,6.87
2017-12-09T10:49:22.068Z,11.13
2017-12-09T10:51:56.764Z,10.00
2017-12-09T10:54:31.473Z,6.97
2017-12-09T10:57:06.252Z,8.90
2017-12-09T10:59:40.696Z,10.77
2017-12-09T11:02:15.509Z,4.73
2017-12-09T11:04:50.159Z,7.60
2017-12-09T11:07:25.009Z,8.83
2017-12-09T11:09:59.593Z,6.40
2017-12-09T11:12:34.188Z,7.30
2017-12-09T11:15:09.061Z,9.80
2017-12-09T11:17:45.125Z,8.40
2017-12-09T11:20:19.732Z,6.07
2017-12-09T11:22:54.628Z,6.23
2017-12-09T11:25:29.259Z,13.20
2017-12-09T11:28:03.817Z,11.13
2017-12-09T11:30:38.492Z,7.13
2017-12-09T11:33:13.720Z,7.80
2017-12-09T11:35:48.197Z,7.37
2017-12-09T11:38:23.155Z,14.10
2017-12-09T11:40:57.853Z,3.83
2017-12-09T11:43:32.977Z,12.90
2017-12-09T11:46:07.604Z,6.77
2017-12-09T11:48:42.608Z,9.30
2017-12-09T11:51:17.188Z,7.77
2017-12-09T11:53:52.093Z,7.20
2017-12-09T11:56:26.644Z,7.13
2017-12-09T11:59:01.481Z,11.50
2017-12-09T12:01:36.408Z,7.00
2017-12-09T12:04:10.961Z,17.90
2017-12-09T12:06:45.565Z,13.37
2017-12-09T12:09:20.336Z,8.50
2017-12-09T12:11:55.097Z,7.30
2017-12-09T12:14:29.748Z,10.03
2017-12-09T12:17:04.497Z,8.00
2017-12-09T12:19:39.284Z,11.10
2017-12-09T12:22:13.881Z,5.50
2017-12-09T12:24:48.523Z,5.73
2017-12-09T12:27:23.227Z,10.80
2017-12-09T12:29:58.009Z,7.43
2017-12-09T12:32:32.841Z,7.57
2017-12-09T12:35:07.544Z,6.07
2017-12-09T12:37:42.095Z,11.63
2017-12-09T12:40:17.157Z,2.50
2017-12-09T12:42:52.058Z,9.00
2017-12-09T12:45:26.661Z,6.10
2017-12-09T12:48:01.514Z,12.50
2017-12-09T12:50:36.333Z,5.60
2017-12-09T12:53:11.133Z,6.57
2017-12-09T12:55:45.989Z,4.40
2017-12-09T12:58:20.549Z,8.00
2017-12-09T13:00:55.496Z,11.70
2017-12-09T13:03:30.056Z,6.70
2017-12-09T13:06:04.840Z,9.90
2017-12-09T13:08:39.636Z,6.33
2017-12-09T13:11:14.377Z,9.47
2017-12-09T13:13:49.239Z,8.83
2017-12-09T13:16:24.017Z,4.83
2017-12-09T13:18:58.577Z,8.90
2017-12-09T13:21:33.628Z,6.30
2017-12-09T13:24:08.200Z,9.13
2017-12-09T13:26:42.961Z,6.23
2017-12-09T13:29:17.785Z,6.97
2017-12-09T13:31:52.436Z,10.13
2017-12-09T13:34:27.188Z,17.60
2017-12-09T13:37:01.945Z,10.03
2017-12-09T13:39:36.884Z,7.30
2017-12-09T13:42:11.813Z,6.73
2017-12-09T13:44:46.465Z,7.80
2017-12-09T13:47:22.270Z,5.57
2017-12-09T13:49:56.941Z,8.83
2017-12-09T13:52:31.681Z,8.07
2017-12-09T13:55:06.680Z,5.60
2017-12-09T13:57:41.064Z,10.00
2017-12-09T14:00:16.169Z,12.60
2017-12-09T14:02:50.692Z,6.53
2017-12-09T14:05:25.536Z,7.67
2017-12-09T14:08:00.615Z,9.80
2017-12-09T14:10:35.425Z,11.77
2017-12-09T14:13:10.856Z,8.73
2017-12-09T14:15:45.801Z,8.70
2017-12-09T14:18:20.624Z,5.00
2017-12-09T14:20:55.680Z,9.37
2017-12-09T14:23:30.968Z,4.60
2017-12-09T14:26:05.772Z,12.43
2017-12-09T14:28:40.439Z,5.57
2017-12-09T14:31:15.276Z,13.53
2017-12-09T14:33:50.024Z,8.90
2017-12-09T14:36:24.756Z,7.67
2017-12-09T14:38:59.605Z,8.80
2017-12-09T14:41:34.262Z,15.03
2017-12-09T14:44:09.332Z,7.70
2017-12-09T14:46:44.368Z,9.30
2017-12-09T14:49:19.293Z,6.40
2017-12-09T14:51:54.124Z,10.20
2017-12-09T14:54:29.084Z,11.07
2017-12-09T14:57:04.031Z,6.33
2017-12-09T14:59:38.784Z,9.33
2017-12-09T15:02:13.564Z,12.40
2017-12-09T15:04:48.469Z,10.13
2017-12-09T15:07:23.416Z,6.03
2017-12-09T15:09:58.669Z,5.97
2017-12-09T15:12:33.070Z,6.13
2017-12-09T15:15:08.023Z,8.10
2017-12-09T15:17:43.156Z,3.80
2017-12-09T15:20:18.238Z,4.27
2017-12-09T15:22:53.136Z,5.93
2017-12-09T15:25:28.298Z,8.43
2017-12-09T15:28:02.773Z,10.77
2017-12-09T15:30:37.668Z,10.00
2017-12-09T15:33:12.441Z,5.90
2017-12-09T15:35:47.226Z,7.03
2017-12-09T15:38:21.801Z,4.50
2017-12-09T15:40:56.500Z,5.10
2017-12-09T15:43:31.129Z,4.80
2017-12-09T15:46:05.856Z,4.30
2017-12-09T15:48:40.376Z,8.90
2017-12-09T15:51:15.116Z,4.03
2017-12-09T15:53:49.745Z,7.90
2017-12-09T15:56:24.812Z,7.60
2017-12-09T15:58:59.429Z,10.33
2017-12-09T16:01:34.109Z,5.90
2017-12-09T16:04:08.761Z,5.30
2017-12-09T16:06:43.425Z,6.37
2017-12-09T16:09:18.141Z,5.80
2017-12-09T16:11:53.043Z,5.17
2017-12-09T16:14:27.673Z,3.03
2017-12-09T16:17:02.392Z,6.37
2017-12-09T16:19:37.331Z,6.73
2017-12-09T16:22:12.012Z,5.83
2017-12-09T16:24:46.749Z,6.80
2017-12-09T16:27:21.532Z,8.70
2017-12-09T16:29:56.593Z,5.90
2017-12-09T16:32:31.292Z,3.83
2017-12-09T16:35:06.024Z,7.07
2017-12-09T16:37:40.997Z,5.70
2017-12-09T16:40:15.772Z,3.27
2017-12-09T16:42:50.517Z,6.47
2017-12-09T16:45:25.086Z,8.27
2017-12-09T16:47:59.776Z,7.10
2017-12-09T16:50:34.564Z,6.20
2017-12-09T16:53:09.022Z,5.87
2017-12-09T16:55:43.645Z,4.30
2017-12-09T16:58:18.132Z,5.60
2017-12-09T17:00:52.705Z,6.67
2017-12-09T17:03:27.217Z,3.73
2017-12-09T17:06:01.936Z,5.83
2017-12-09T17:08:36.616Z,7.20
2017-12-09T17:11:11.089Z,6.37
2017-12-09T17:13:45.720Z,4.90
2017-12-09T17:16:20.272Z,5.67
2017-12-09T17:18:55.076Z,6.90
2017-12-09T17:21:29.752Z,5.13
2017-12-09T17:24:04.528Z,3.77
2017-12-09T17:26:39.284Z,6.03
2017-12-09T17:29:14.593Z,6.37
2017-12-09T17:31:49.272Z,5.30
2017-12-09T17:34:23.784Z,3.97
2017-12-09T17:36:58.465Z,5.73
2017-12-09T17:39:33.249Z,5.87
2017-12-09T17:42:08.163Z,6.80
2017-12-09T17:44:42.781Z,6.57
2017-12-09T17:47:17.715Z,4.40
2017-12-09T17:49:52.608Z,6.10
2017-12-09T17:52:27.895Z,7.13
2017-12-09T17:55:02.396Z,5.57
2017-12-09T17:57:37.072Z,4.53
2017-12-09T18:00:11.384Z,4.17
2017-12-09T18:02:46.281Z,5.80
2017-12-09T18:05:21.109Z,5.70
2017-12-09T18:07:56.056Z,4.93
2017-12-09T18:10:30.458Z,5.60
2017-12-09T18:13:05.036Z,5.17
2017-12-09T18:15:39.541Z,3.93
2017-12-09T18:18:14.548Z,6.87
2017-12-09T18:20:49.500Z,3.10
2017-12-09T18:23:24.318Z,6.70
2017-12-09T18:25:59.067Z,3.33
2017-12-09T18:28:33.670Z,6.30
2017-12-09T18:31:08.318Z,8.10
2017-12-09T18:33:43.021Z,6.97
2017-12-09T18:36:17.739Z,6.53
2017-12-09T18:38:52.452Z,6.87
2017-12-09T18:41:27.236Z,7.10
2017-12-09T18:44:02.428Z,6.87
2017-12-09T18:46:36.868Z,5.47
2017-12-09T18:49:11.596Z,6.90
2017-12-09T18:51:46.738Z,4.67
2017-12-09T18:54:21.086Z,5.37
2017-12-09T18:56:55.706Z,5.00
2017-12-09T18:59:30.404Z,7.80
2017-12-09T19:02:05.133Z,6.83
2017-12-09T19:04:39.890Z,4.67
2017-12-09T19:07:14.697Z,6.33
2017-12-09T19:09:49.441Z,7.10
2017-12-09T19:12:24.581Z,6.40
2017-12-09T19:14:59.097Z,7.00
2017-12-09T19:17:33.624Z,4.60
2017-12-09T19:20:08.613Z,5.03
2017-12-09T19:22:42.984Z,5.20
2017-12-09T19:25:17.541Z,6.40
2017-12-09T19:27:52.194Z,5.50
2017-12-09T19:30:26.893Z,6.63
2017-12-09T19:33:01.649Z,3.10
2017-12-09T19:35:36.425Z,5.30
2017-12-09T19:38:11.157Z,4.70
2017-12-09T19:40:45.883Z,7.00
2017-12-09T19:43:20.557Z,5.80
2017-12-09T19:45:55.187Z,7.90
2017-12-09T19:48:29.888Z,8.47
2017-12-09T19:51:04.685Z,9.53
2017-12-09T19:53:39.263Z,5.23
2017-12-09T19:56:14.120Z,7.73
2017-12-09T19:58:48.992Z,7.20
2017-12-09T20:01:23.804Z,6.70
2017-12-09T20:03:58.961Z,8.40
2017-12-09T20:06:33.384Z,6.43
2017-12-09T20:09:08.297Z,10.87
2017-12-09T20:11:43.219Z,11.73
2017-12-09T20:14:18.148Z,10.27
2017-12-09T20:16:53.120Z,16.23
2017-12-09T20:19:27.709Z,10.43
2017-12-09T20:22:02.464Z,14.90
2017-12-09T20:24:37.013Z,12.87
2017-12-09T20:27:11.816Z,7.63
2017-12-09T20:29:46.527Z,13.10
2017-12-09T20:32:21.117Z,12.37
2017-12-09T20:34:55.740Z,16.03
2017-12-09T20:37:30.457Z,15.70
2017-12-09T20:40:05.761Z,15.53
2017-12-09T20:42:40.210Z,15.80
2017-12-09T20:45:14.664Z,16.10
2017-12-09T20:47:48.825Z,20.97
2017-12-09T20:50:23.496Z,13.30
2017-12-09T20:52:58.411Z,12.77
2017-12-09T20:55:32.604Z,20.77
2017-12-09T20:58:07.437Z,18.60
2017-12-09T21:00:42.369Z,16.80
2017-12-09T21:03:17.009Z,18.80
2017-12-09T21:05:51.825Z,22.60
2017-12-09T21:08:26.763Z,14.40
2017-12-09T21:11:01.585Z,26.50
2017-12-09T21:13:36.153Z,24.33
2017-12-09T21:16:11.789Z,12.03
2017-12-09T21:18:46.711Z,26.70
2017-12-09T21:21:21.712Z,18.23
2017-12-09T21:23:56.921Z,14.53
2017-12-09T21:26:31.600Z,19.37
2017-12-09T21:29:06.532Z,27.77
2017-12-09T21:31:41.029Z,16.60
2017-12-09T21:34:15.794Z,18.70
2017-12-09T21:36:50.705Z,13.50
2017-12-09T21:39:25.368Z,20.30
2017-12-09T21:42:00.184Z,14.10
2017-12-09T21:44:34.812Z,15.10
2017-12-09T21:47:09.840Z,18.90
2017-12-09T21:49:44.615Z,15.47
2017-12-09T21:52:19.176Z,9.70
2017-12-09T21:54:53.849Z,14.97
2017-12-09T21:57:28.700Z,12.30
2017-12-09T22:00:03.242Z,9.57
2017-12-09T22:02:38.187Z,16.33
2017-12-09T22:05:13.032Z,15.80
2017-12-09T22:07:48.097Z,21.83
2017-12-09T22:10:22.719Z,14.23
2017-12-09T22:12:57.569Z,13.37
2017-12-09T22:15:32.188Z,12.97
2017-12-09T22:18:06.980Z,15.70
2017-12-09T22:20:42.137Z,14.13
2017-12-09T22:23:16.565Z,13.60
2017-12-09T22:25:51.229Z,9.27
2017-12-09T22:28:25.991Z,12.87
2017-12-09T22:31:00.716Z,7.53
2017-12-09T22:33:35.390Z,7.60
2017-12-09T22:36:10.656Z,10.50
2017-12-09T22:38:45.256Z,17.17
2017-12-09T22:41:19.524Z,17.00
2017-12-09T22:43:54.256Z,14.30
2017-12-09T22:46:28.792Z,14.87
2017-12-09T22:49:03.557Z,16.17
2017-12-09T22:51:38.067Z,13.80
2017-12-09T22:54:12.854Z,17.93
2017-12-09T22:56:47.602Z,16.50
2017-12-09T22:59:22.172Z,12.17
2017-12-09T23:01:56.750Z,13.37
2017-12-09T23:04:31.788Z,19.43
2017-12-09T23:07:06.784Z,9.03
2017-12-09T23:09:41.433Z,9.40
2017-12-09T23:12:16.169Z,16.10
2017-12-09T23:14:50.921Z,11.53
2017-12-09T23:17:25.644Z,6.87
2017-12-09T23:20:00.456Z,14.87
2017-12-09T23:22:35.247Z,9.43
2017-12-09T23:25:10.009Z,16.77
2017-12-09T23:27:44.982Z,15.13
2017-12-09T23:30:19.768Z,19.20
2017-12-09T23:32:54.496Z,15.53
2017-12-09T23:35:29.125Z,11.20
2017-12-09T23:38:03.916Z,9.53
2017-12-09T23:40:38.448Z,12.50
2017-12-09T23:43:13.231Z,10.00
2017-12-09T23:45:47.976Z,11.43
2017-12-09T23:48:22.701Z,16.07
2017-12-09T23:50:57.536Z,13.13
2017-12-09T23:53:32.463Z,10.70
2017-12-09T23:56:07.073Z,7.23
2017-12-09T23:58:41.773Z,10.47
